Time;durP1;ratioP1;P1;durP2;ratioP2;P2;SDS_P1;SDS_P2;PMS_P1;PMS_P2;Temp;Humidity;BMP_temperature;BMP_pressure;BME280_temperature;BME280_humidity;BME280_pressure;Samples;Min_cycle;Max_cycle;Signal;HPM_P1;HPM_P2
2022/12/25 00:01:08;;;;;;;16.23;6.37;;;6.30;99.90;;;;;;5019239;28;20208;-51
2022/12/25 00:03:35;;;;;;;16.40;6.13;;;6.20;99.90;;;;;;5022784;28;20220;-49
2022/12/25 00:06:02;;;;;;;29.07;6.97;;;6.10;99.90;;;;;;5019241;28;20595;-50
2022/12/25 00:08:28;;;;;;;16.40;6.53;;;6.10;99.90;;;;;;5013664;28;20211;-53
2022/12/25 00:11:02;;;;;;;20.60;6.50;;;6.00;99.90;;;;;;5028216;28;20203;-52
2022/12/25 00:13:30;;;;;;;8.80;5.67;;;6.00;99.90;;;;;;5021993;28;20231;-47
2022/12/25 00:15:57;;;;;;;15.63;7.17;;;5.90;99.90;;;;;;5029185;28;20788;-52
2022/12/25 00:18:24;;;;;;;11.87;4.67;;;5.90;99.90;;;;;;5027973;28;20557;-50
2022/12/25 00:20:58;;;;;;;14.77;6.63;;;5.80;99.90;;;;;;5018792;28;20196;-50
2022/12/25 00:23:25;;;;;;;12.00;5.70;;;5.80;99.90;;;;;;5025986;28;20232;-50
2022/12/25 00:25:51;;;;;;;11.90;6.00;;;5.80;99.90;;;;;;5013331;28;20204;-51
2022/12/25 00:28:21;;;;;;;23.47;7.13;;;5.70;99.90;;;;;;5025288;28;20211;-47
2022/12/25 00:30:48;;;;;;;15.13;6.17;;;5.50;99.90;;;;;;5022450;28;20200;-50
2022/12/25 00:33:15;;;;;;;19.27;7.47;;;5.50;99.90;;;;;;5025064;28;20227;-51
2022/12/25 00:35:42;;;;;;;20.17;6.80;;;5.40;99.90;;;;;;5038939;28;20665;-52
2022/12/25 00:38:09;;;;;;;15.53;6.30;;;5.40;99.90;;;;;;5027272;28;20199;-52
2022/12/25 00:40:42;;;;;;;18.73;6.50;;;5.30;99.90;;;;;;5014475;28;20263;-51
2022/12/25 00:43:08;;;;;;;14.33;6.13;;;5.30;99.90;;;;;;5034314;28;20188;-54
2022/12/25 00:45:36;;;;;;;9.73;5.97;;;5.20;99.90;;;;;;5035068;28;20257;-50
2022/12/25 00:48:03;;;;;;;11.97;5.70;;;5.20;99.90;;;;;;5039522;28;20210;-52
2022/12/25 00:50:30;;;;;;;16.90;5.60;;;5.10;99.90;;;;;;5023514;28;20198;-52
2022/12/25 00:52:58;;;;;;;16.27;5.83;;;5.10;99.90;;;;;;5025584;28;20711;-52
2022/12/25 00:55:24;;;;;;;9.60;5.80;;;5.00;99.90;;;;;;5010213;28;20207;-53
2022/12/25 00:57:51;;;;;;;17.73;6.10;;;5.00;99.90;;;;;;5026078;28;20204;-50
2022/12/25 01:00:18;;;;;;;15.03;5.97;;;5.00;99.90;;;;;;5022015;28;20196;-51
2022/12/25 01:02:46;;;;;;;9.53;4.80;;;5.00;99.90;;;;;;5025817;28;20196;-51
2022/12/25 01:05:13;;;;;;;16.70;6.33;;;5.00;99.90;;;;;;5023133;28;20234;-51
2022/12/25 01:07:41;;;;;;;11.27;5.40;;;5.00;99.90;;;;;;5025429;28;20204;-51
2022/12/25 01:10:21;;;;;;;18.37;6.23;;;4.90;99.90;;;;;;5017815;28;20200;-50
2022/12/25 01:12:48;;;;;;;10.83;5.67;;;4.80;99.90;;;;;;5028940;28;20223;-53
2022/12/25 01:15:15;;;;;;;10.87;5.70;;;4.70;99.90;;;;;;5027402;28;20219;-50
2022/12/25 01:17:43;;;;;;;9.27;5.93;;;4.70;99.90;;;;;;5028938;28;20200;-49
2022/12/25 01:20:14;;;;;;;7.53;5.23;;;4.60;99.90;;;;;;5027684;28;20286;-51
2022/12/25 01:22:41;;;;;;;16.00;6.30;;;4.50;99.90;;;;;;5034758;28;20199;-46
2022/12/25 01:25:30;;;;;;;25.33;7.27;;;4.50;99.90;;;;;;5027042;28;20215;-49
2022/12/25 01:27:57;;;;;;;11.53;6.03;;;4.50;99.90;;;;;;5012378;28;20231;-50
2022/12/25 01:30:23;;;;;;;13.03;6.23;;;4.50;99.90;;;;;;5021380;28;20200;-49
2022/12/25 01:32:50;;;;;;;10.37;5.97;;;4.40;99.90;;;;;;5024979;28;20632;-54
2022/12/25 01:35:19;;;;;;;11.33;6.10;;;4.40;99.90;;;;;;5020735;28;20230;-51
2022/12/25 01:37:46;;;;;;;23.00;8.27;;;4.40;99.90;;;;;;5025038;28;20266;-49
2022/12/25 01:40:14;;;;;;;9.67;5.70;;;4.30;99.90;;;;;;5022551;28;20204;-53
2022/12/25 01:42:40;;;;;;;15.23;7.87;;;4.40;99.90;;;;;;5011912;28;20208;-49
2022/12/25 01:45:29;;;;;;;14.03;6.77;;;4.30;99.90;;;;;;5028907;28;20219;-49
2022/12/25 01:47:57;;;;;;;15.93;7.60;;;4.30;99.90;;;;;;5028893;28;20203;-47
2022/12/25 01:50:25;;;;;;;14.77;6.43;;;4.30;99.90;;;;;;5020566;28;20196;-49
2022/12/25 01:52:53;;;;;;;16.33;6.30;;;4.30;99.90;;;;;;5024788;28;20220;-48
2022/12/25 01:55:20;;;;;;;18.50;6.40;;;4.20;99.90;;;;;;5021112;28;20907;-47
2022/12/25 01:57:47;;;;;;;18.43;7.97;;;4.20;99.90;;;;;;5011708;28;20208;-52
2022/12/25 02:00:15;;;;;;;16.40;6.53;;;4.20;99.90;;;;;;5021951;28;20662;-51
2022/12/25 02:02:44;;;;;;;18.73;7.73;;;4.10;99.90;;;;;;5024124;28;20204;-51
2022/12/25 02:05:17;;;;;;;23.57;7.73;;;4.10;99.90;;;;;;5022257;28;20594;-52
2022/12/25 02:07:46;;;;;;;19.23;8.10;;;4.20;99.90;;;;;;5024533;28;20196;-48
2022/12/25 02:10:13;;;;;;;21.07;7.53;;;4.20;99.90;;;;;;5021921;28;20207;-51
2022/12/25 02:12:42;;;;;;;16.07;7.37;;;4.30;99.90;;;;;;5012575;28;20231;-49
2022/12/25 02:15:12;;;;;;;26.20;9.90;;;4.30;99.90;;;;;;5029897;28;20276;-48
2022/12/25 02:17:45;;;;;;;22.90;8.60;;;4.30;99.90;;;;;;5031677;28;20673;-48
2022/12/25 02:20:39;;;;;;;19.60;8.03;;;4.40;99.90;;;;;;5027153;28;20196;-48
2022/12/25 02:23:31;;;;;;;18.03;8.23;;;4.40;99.90;;;;;;5025404;28;20226;-51
2022/12/25 02:26:10;;;;;;;21.27;8.30;;;4.40;99.90;;;;;;5030221;28;20920;-49
2022/12/25 02:28:44;;;;;;;17.30;7.13;;;4.40;99.90;;;;;;5016409;28;20200;-49
2022/12/25 02:31:15;;;;;;;25.00;9.20;;;4.50;99.90;;;;;;5024588;28;20845;-48
2022/12/25 02:34:05;;;;;;;23.93;7.60;;;4.40;99.90;;;;;;5023456;28;20223;-49
2022/12/25 02:36:38;;;;;;;22.40;9.10;;;4.40;99.90;;;;;;5022392;28;20215;-49
2022/12/25 02:42:01;;;;;;;21.77;8.67;;;4.50;99.90;;;;;;5038363;28;20195;-47
2022/12/25 03:07:04;;;;;;;14.23;6.80;;;4.30;99.90;;;;;;5023658;28;20236;-50
2022/12/25 03:12:32;;;;;;;13.83;6.80;;;4.00;99.90;;;;;;5038791;28;20294;-49
2022/12/25 03:17:44;;;;;;;13.97;7.10;;;3.90;99.90;;;;;;5023156;28;20238;-51
2022/12/25 03:28:26;;;;;;;19.73;8.70;;;3.90;99.90;;;;;;5033666;28;20194;-51
2022/12/25 03:31:11;;;;;;;27.47;8.97;;;3.90;99.90;;;;;;5025050;28;20728;-49
2022/12/25 03:36:54;;;;;;;47.33;9.77;;;3.90;99.90;;;;;;5032261;28;20566;-47
2022/12/25 04:37:50;;;;;;;43.07;12.47;;;4.20;99.90;;;;;;5026505;28;20214;-50
2022/12/25 04:40:18;;;;;;;32.77;13.37;;;4.20;99.90;;;;;;5021872;28;20196;-49
2022/12/25 04:42:46;;;;;;;59.03;14.97;;;4.30;99.90;;;;;;5031060;28;20196;-52
2022/12/25 04:45:13;;;;;;;61.53;15.27;;;4.30;99.90;;;;;;5022227;28;20216;-52
2022/12/25 04:47:39;;;;;;;36.13;14.53;;;4.30;99.90;;;;;;5021616;28;20230;-54
2022/12/25 04:50:07;;;;;;;41.87;15.17;;;4.30;99.90;;;;;;5024708;28;20196;-53
2022/12/25 04:52:35;;;;;;;32.40;14.47;;;4.40;99.90;;;;;;5023799;28;20307;-50
2022/12/25 04:55:03;;;;;;;44.93;14.80;;;4.40;99.90;;;;;;5025558;28;20222;-52
2022/12/25 04:57:31;;;;;;;40.90;15.63;;;4.40;99.90;;;;;;5023410;28;20943;-53
2022/12/25 04:59:58;;;;;;;36.93;13.57;;;4.50;99.90;;;;;;5044763;28;20222;-49
2022/12/25 05:02:25;;;;;;;31.13;14.33;;;4.50;99.90;;;;;;5008753;28;21222;-50
2022/12/25 05:04:53;;;;;;;32.13;14.07;;;4.50;99.90;;;;;;5032112;28;20227;-50
2022/12/25 05:07:20;;;;;;;29.80;14.60;;;4.50;99.90;;;;;;5021304;28;20215;-51
2022/12/25 05:09:46;;;;;;;31.40;13.83;;;4.60;99.90;;;;;;5052608;28;20208;-53
2022/12/25 05:12:13;;;;;;;31.30;13.27;;;4.60;99.90;;;;;;5023110;28;20679;-49
2022/12/25 05:14:41;;;;;;;29.60;13.30;;;4.60;99.90;;;;;;5025161;28;20323;-49
2022/12/25 05:17:08;;;;;;;34.43;12.33;;;4.60;99.90;;;;;;5053583;28;20553;-53
2022/12/25 05:19:35;;;;;;;44.60;13.30;;;4.70;99.90;;;;;;5010511;28;20836;-48
2022/12/25 05:22:02;;;;;;;39.67;13.70;;;4.60;99.90;;;;;;5024651;28;20886;-51
2022/12/25 05:24:29;;;;;;;38.30;12.93;;;4.60;99.90;;;;;;5023680;28;20282;-47
2022/12/25 05:26:56;;;;;;;35.90;12.17;;;4.60;99.90;;;;;;5025710;28;20571;-53
2022/12/25 05:29:23;;;;;;;46.63;14.63;;;4.60;99.90;;;;;;5021928;28;20199;-49
2022/12/25 05:31:51;;;;;;;50.60;14.43;;;4.60;99.90;;;;;;5025280;28;20203;-48
2022/12/25 05:34:18;;;;;;;52.40;14.37;;;4.60;99.90;;;;;;5010053;28;20223;-52
2022/12/25 05:36:45;;;;;;;49.70;13.63;;;4.60;99.90;;;;;;5030090;28;20685;-52
2022/12/25 05:39:12;;;;;;;54.33;13.80;;;4.60;99.90;;;;;;5024455;28;20211;-51
2022/12/25 05:41:39;;;;;;;33.37;12.87;;;4.60;99.90;;;;;;5029760;28;20200;-50
2022/12/25 05:44:06;;;;;;;34.20;13.13;;;4.60;99.90;;;;;;5047961;28;20222;-52
2022/12/25 05:46:33;;;;;;;30.93;13.33;;;4.60;99.90;;;;;;5028933;28;20223;-49
2022/12/25 05:49:01;;;;;;;29.07;12.20;;;4.60;99.90;;;;;;5015417;28;20265;-53
2022/12/25 05:51:29;;;;;;;25.53;12.93;;;4.60;99.90;;;;;;5022003;28;20212;-47
2022/12/25 05:53:56;;;;;;;24.57;10.83;;;4.60;99.90;;;;;;5024762;28;20215;-49
2022/12/25 05:56:23;;;;;;;27.10;12.03;;;4.60;99.90;;;;;;5025587;28;20293;-51
2022/12/25 05:58:50;;;;;;;28.97;12.47;;;4.70;99.90;;;;;;5026012;28;20211;-48
2022/12/25 06:01:19;;;;;;;24.13;12.47;;;4.70;99.90;;;;;;5021309;28;20203;-49
2022/12/25 06:03:46;;;;;;;33.27;13.00;;;4.70;99.90;;;;;;5024595;28;20231;-53
2022/12/25 06:06:15;;;;;;;21.67;11.40;;;4.70;99.90;;;;;;5008884;28;20204;-51
2022/12/25 06:08:42;;;;;;;22.77;10.77;;;4.70;99.90;;;;;;5022448;28;20200;-52
2022/12/25 06:11:10;;;;;;;30.13;11.90;;;4.70;99.90;;;;;;5022884;28;20200;-51
2022/12/25 06:13:37;;;;;;;24.10;12.03;;;4.70;99.90;;;;;;5023253;28;20227;-49
2022/12/25 06:16:06;;;;;;;24.50;12.13;;;4.70;99.90;;;;;;5044533;28;20727;-51
2022/12/25 06:18:35;;;;;;;20.77;11.63;;;4.70;99.90;;;;;;5023807;28;20903;-48
2022/12/25 06:21:06;;;;;;;23.30;13.00;;;4.70;99.90;;;;;;5012722;28;20287;-49
2022/12/25 06:23:34;;;;;;;25.93;11.97;;;4.80;99.90;;;;;;5021670;28;20234;-50
2022/12/25 06:26:03;;;;;;;24.13;11.47;;;4.70;99.90;;;;;;5025027;28;20211;-51
2022/12/25 06:28:30;;;;;;;30.40;11.40;;;4.70;99.90;;;;;;5026921;28;20191;-47
2022/12/25 06:30:58;;;;;;;22.37;10.97;;;4.70;99.90;;;;;;5028414;28;20785;-51
2022/12/25 06:33:25;;;;;;;21.60;11.73;;;4.70;99.90;;;;;;5020312;28;20964;-50
2022/12/25 06:35:51;;;;;;;28.97;12.13;;;4.70;99.90;;;;;;5013225;28;20199;-48
2022/12/25 06:38:18;;;;;;;23.37;10.20;;;4.70;99.90;;;;;;5020246;28;20760;-51
2022/12/25 06:40:47;;;;;;;17.27;9.93;;;4.70;99.90;;;;;;5038412;28;20303;-49
2022/12/25 06:43:14;;;;;;;21.30;10.43;;;4.70;99.90;;;;;;5020870;28;20196;-51
2022/12/25 06:45:40;;;;;;;23.23;11.10;;;4.70;99.90;;;;;;5025533;28;20257;-47
2022/12/25 06:48:07;;;;;;;21.37;10.33;;;4.60;99.90;;;;;;5033058;28;20196;-49
2022/12/25 06:50:34;;;;;;;24.30;10.87;;;4.70;99.90;;;;;;5010401;28;20207;-47
2022/12/25 06:53:01;;;;;;;21.03;10.17;;;4.70;99.90;;;;;;5023426;28;20529;-53
2022/12/25 06:55:27;;;;;;;23.67;11.00;;;4.70;99.90;;;;;;5017536;28;20199;-51
2022/12/25 06:57:56;;;;;;;26.07;10.40;;;4.70;99.90;;;;;;5028606;28;20223;-50
2022/12/25 07:00:23;;;;;;;27.67;11.77;;;4.80;99.90;;;;;;5020277;28;20196;-51
2022/12/25 07:02:50;;;;;;;21.67;10.27;;;4.80;99.90;;;;;;5023750;28;20701;-51
2022/12/25 07:05:17;;;;;;;19.73;10.97;;;4.90;99.90;;;;;;5008878;28;20223;-52
2022/12/25 07:07:43;;;;;;;28.30;11.33;;;4.90;99.90;;;;;;5027225;28;20203;-50
2022/12/25 07:10:11;;;;;;;25.10;10.27;;;4.90;99.90;;;;;;5024188;28;20204;-50
2022/12/25 07:12:37;;;;;;;24.27;10.30;;;4.90;99.90;;;;;;5024395;28;20504;-49
2022/12/25 07:15:08;;;;;;;27.03;10.83;;;5.00;99.90;;;;;;5022689;28;20239;-52
2022/12/25 07:17:35;;;;;;;27.33;9.90;;;5.00;99.90;;;;;;5031276;28;20199;-51
2022/12/25 07:20:02;;;;;;;25.03;10.10;;;5.00;99.90;;;;;;5023092;28;20670;-51
2022/12/25 07:22:29;;;;;;;28.13;10.53;;;5.00;99.90;;;;;;5011549;28;20196;-49
2022/12/25 07:24:56;;;;;;;26.37;10.23;;;5.00;99.90;;;;;;5023537;28;20212;-47
2022/12/25 07:27:22;;;;;;;22.57;10.43;;;5.00;99.90;;;;;;5017418;28;20922;-47
2022/12/25 07:29:49;;;;;;;29.53;10.83;;;4.90;99.90;;;;;;5023668;28;20207;-48
2022/12/25 07:32:18;;;;;;;25.70;10.77;;;4.90;99.90;;;;;;5020181;28;20738;-49
2022/12/25 07:34:45;;;;;;;24.90;9.77;;;4.90;99.90;;;;;;5025927;28;20223;-51
2022/12/25 07:37:11;;;;;;;25.23;10.47;;;5.00;99.90;;;;;;5017081;28;20192;-53
2022/12/25 07:39:39;;;;;;;25.27;10.90;;;5.00;99.90;;;;;;5023109;28;20243;-52
2022/12/25 07:42:06;;;;;;;22.77;9.53;;;5.00;99.90;;;;;;5025116;28;20203;-52
2022/12/25 07:44:33;;;;;;;32.17;10.80;;;5.00;99.90;;;;;;5024814;28;20305;-47
2022/12/25 07:47:00;;;;;;;19.37;10.40;;;5.00;99.90;;;;;;5034817;28;20187;-51
2022/12/25 07:49:28;;;;;;;25.17;9.63;;;5.00;99.90;;;;;;5023925;28;20257;-49
2022/12/25 07:51:55;;;;;;;25.97;10.03;;;5.00;99.90;;;;;;5032884;28;20203;-47
2022/12/25 07:54:22;;;;;;;25.73;10.00;;;5.00;99.90;;;;;;5016656;28;20246;-52
2022/12/25 07:56:50;;;;;;;21.07;10.03;;;5.00;99.90;;;;;;5027050;28;20200;-51
2022/12/25 07:59:17;;;;;;;23.73;10.13;;;5.00;99.90;;;;;;5020600;28;20207;-53
2022/12/25 08:01:44;;;;;;;24.87;10.10;;;5.00;99.90;;;;;;5027221;28;20215;-53
2022/12/25 08:04:15;;;;;;;23.40;9.80;;;5.10;99.90;;;;;;5023960;28;20224;-53
2022/12/25 08:06:43;;;;;;;28.23;10.67;;;5.10;99.90;;;;;;5026349;28;20617;-52
2022/12/25 08:09:11;;;;;;;27.03;9.67;;;5.10;99.90;;;;;;5017931;28;20196;-48
2022/12/25 08:11:39;;;;;;;27.77;10.93;;;5.10;99.90;;;;;;5025410;28;20191;-54
2022/12/25 08:14:07;;;;;;;28.50;10.50;;;5.20;99.90;;;;;;5027577;28;20222;-54
2022/12/25 08:16:34;;;;;;;21.53;9.27;;;5.20;99.90;;;;;;5031486;28;20199;-48
2022/12/25 08:19:00;;;;;;;28.73;9.97;;;5.20;99.90;;;;;;5032856;28;20200;-49
2022/12/25 08:21:27;;;;;;;25.47;9.77;;;5.30;99.90;;;;;;5030392;28;20199;-49
2022/12/25 08:23:55;;;;;;;24.97;9.63;;;5.30;99.90;;;;;;5030778;28;20251;-50
2022/12/25 08:26:23;;;;;;;25.43;9.77;;;5.40;99.90;;;;;;5011120;28;20192;-49
2022/12/25 08:28:50;;;;;;;24.10;9.57;;;5.40;99.90;;;;;;5026803;28;20224;-53
2022/12/25 08:31:20;;;;;;;26.93;9.93;;;5.40;99.90;;;;;;5019289;28;20204;-51
2022/12/25 08:33:48;;;;;;;25.50;9.57;;;5.50;99.90;;;;;;5026130;28;20224;-47
2022/12/25 08:36:33;;;;;;;29.97;9.53;;;5.50;99.90;;;;;;5024548;28;20211;-53
2022/12/25 08:39:02;;;;;;;28.87;9.80;;;5.50;99.90;;;;;;5026506;28;20219;-52
2022/12/25 08:41:28;;;;;;;23.67;9.80;;;5.50;99.90;;;;;;5018270;28;20250;-54
2022/12/25 08:43:55;;;;;;;18.33;9.10;;;5.60;99.90;;;;;;5031069;28;20219;-47
2022/12/25 08:46:22;;;;;;;27.13;10.57;;;5.60;99.90;;;;;;5019404;28;20207;-49
2022/12/25 08:48:49;;;;;;;27.83;10.83;;;5.70;99.90;;;;;;5037126;28;20202;-51
2022/12/25 08:51:19;;;;;;;25.80;9.67;;;5.60;99.90;;;;;;5027083;28;20203;-49
2022/12/25 08:53:48;;;;;;;23.77;10.80;;;5.70;99.90;;;;;;5036200;28;20594;-52
2022/12/25 08:56:17;;;;;;;20.10;9.47;;;5.70;99.90;;;;;;5022571;28;20200;-52
2022/12/25 08:58:44;;;;;;;22.67;10.17;;;5.80;99.90;;;;;;5027514;28;20671;-53
2022/12/25 09:01:11;;;;;;;23.53;9.57;;;5.80;99.90;;;;;;5027831;28;20616;-49
2022/12/25 09:03:38;;;;;;;26.80;8.67;;;5.80;99.90;;;;;;5034683;28;20223;-47
2022/12/25 09:06:08;;;;;;;24.47;9.57;;;5.90;99.90;;;;;;5028963;28;20203;-47
2022/12/25 09:08:35;;;;;;;27.10;10.30;;;5.90;99.90;;;;;;5034929;28;20188;-52
2022/12/25 09:11:03;;;;;;;25.17;9.23;;;5.90;99.90;;;;;;5031813;28;20207;-53
2022/12/25 09:13:31;;;;;;;22.30;8.43;;;6.00;99.90;;;;;;5020178;28;20224;-49
2022/12/25 09:15:58;;;;;;;22.60;8.90;;;6.00;99.90;;;;;;5022260;28;20227;-48
2022/12/25 09:18:25;;;;;;;24.97;8.90;;;6.00;99.90;;;;;;5025160;28;20208;-51
2022/12/25 09:20:58;;;;;;;23.20;8.50;;;6.00;99.90;;;;;;5028986;28;20207;-52
2022/12/25 09:23:25;;;;;;;16.27;8.47;;;6.00;99.90;;;;;;5029116;28;20218;-53
2022/12/25 09:25:52;;;;;;;29.73;9.33;;;6.10;99.90;;;;;;5036766;28;20199;-50
2022/12/25 09:28:19;;;;;;;22.23;8.50;;;6.10;99.90;;;;;;5024711;28;20808;-51
2022/12/25 09:30:50;;;;;;;15.63;8.33;;;6.10;99.90;;;;;;5034691;28;20203;-47
2022/12/25 09:33:16;;;;;;;22.40;9.87;;;6.10;99.90;;;;;;5020785;28;20214;-51
2022/12/25 09:35:43;;;;;;;19.13;8.30;;;6.20;99.90;;;;;;5032359;28;20689;-51
2022/12/25 09:38:10;;;;;;;20.90;8.57;;;6.20;99.90;;;;;;5034843;28;20215;-49
2022/12/25 09:40:37;;;;;;;30.40;11.27;;;6.20;99.90;;;;;;5028323;28;20198;-48
2022/12/25 09:43:04;;;;;;;22.67;9.13;;;6.30;99.90;;;;;;5028354;28;20689;-50
2022/12/25 09:45:36;;;;;;;24.27;9.13;;;6.30;99.90;;;;;;5026258;28;20191;-48
2022/12/25 09:48:13;;;;;;;18.33;8.90;;;6.30;99.90;;;;;;5027034;28;20618;-51
2022/12/25 09:50:45;;;;;;;30.10;9.27;;;6.40;99.90;;;;;;5023567;28;21283;-51
2022/12/25 09:53:18;;;;;;;22.90;8.47;;;6.40;99.90;;;;;;5030993;28;20613;-47
2022/12/25 09:55:52;;;;;;;16.93;9.43;;;6.40;99.90;;;;;;5028351;28;22030;-51
2022/12/25 09:58:19;;;;;;;27.83;9.23;;;6.40;99.90;;;;;;5021708;28;20234;-51
2022/12/25 10:00:51;;;;;;;25.70;9.23;;;6.50;99.90;;;;;;5010304;28;20220;-47
2022/12/25 10:03:33;;;;;;;16.70;9.13;;;6.50;99.90;;;;;;5020869;28;20207;-46
2022/12/25 10:06:10;;;;;;;17.67;8.87;;;6.50;99.90;;;;;;5037778;28;20203;-49
2022/12/25 10:08:53;;;;;;;18.97;8.50;;;6.50;99.90;;;;;;5034589;28;20199;-51
2022/12/25 10:11:30;;;;;;;23.83;9.20;;;6.50;99.90;;;;;;5036512;28;20195;-49
2022/12/25 10:14:11;;;;;;;18.23;9.70;;;6.60;99.90;;;;;;5029780;28;20228;-53
2022/12/25 10:16:48;;;;;;;15.40;7.63;;;6.60;99.90;;;;;;5029948;28;20685;-52
2022/12/25 10:19:33;;;;;;;22.80;8.30;;;6.60;99.90;;;;;;5022835;28;20226;-51
2022/12/25 10:22:08;;;;;;;18.77;8.33;;;6.60;99.90;;;;;;5032332;28;20203;-49
2022/12/25 10:24:40;;;;;;;14.07;8.90;;;6.60;99.90;;;;;;5040823;28;20728;-52
2022/12/25 10:27:14;;;;;;;24.13;8.37;;;6.60;99.90;;;;;;5034615;28;20247;-47
2022/12/25 10:29:42;;;;;;;19.97;8.30;;;6.60;99.90;;;;;;5024884;28;20686;-47
2022/12/25 10:32:10;;;;;;;17.47;8.33;;;6.60;99.90;;;;;;5014851;28;20203;-51
2022/12/25 10:34:41;;;;;;;25.37;8.90;;;6.60;99.90;;;;;;5029688;28;20230;-49
2022/12/25 10:37:10;;;;;;;17.40;7.60;;;6.70;99.90;;;;;;5033277;28;20199;-47
2022/12/25 10:39:37;;;;;;;20.43;8.73;;;6.60;99.90;;;;;;5037076;28;20207;-49
2022/12/25 10:42:23;;;;;;;18.30;8.20;;;6.70;99.90;;;;;;5039293;28;20191;-49
2022/12/25 10:44:56;;;;;;;18.03;8.73;;;6.70;99.90;;;;;;5036410;28;20212;-53
2022/12/25 10:47:28;;;;;;;20.40;8.87;;;6.80;99.90;;;;;;5026298;28;20223;-46
2022/12/25 10:49:57;;;;;;;16.60;7.67;;;6.80;99.90;;;;;;5026424;28;20207;-52
2022/12/25 10:52:26;;;;;;;21.73;8.37;;;6.80;99.90;;;;;;5027375;28;22139;-54
2022/12/25 10:54:53;;;;;;;18.57;7.93;;;6.80;99.90;;;;;;5043255;28;20709;-51
2022/12/25 10:57:21;;;;;;;16.33;7.83;;;6.80;99.90;;;;;;5029330;28;20192;-50
2022/12/25 10:59:51;;;;;;;17.80;8.07;;;6.80;99.90;;;;;;5035074;28;20195;-53
2022/12/25 11:02:23;;;;;;;15.40;7.43;;;6.90;99.90;;;;;;5029337;28;20219;-47
2022/12/25 11:04:51;;;;;;;23.07;8.33;;;6.90;99.90;;;;;;5028078;28;20582;-49
2022/12/25 11:07:25;;;;;;;19.23;8.00;;;6.90;99.90;;;;;;5022073;28;20208;-52
2022/12/25 11:09:54;;;;;;;18.40;7.43;;;6.90;99.90;;;;;;5029899;28;20214;-53
2022/12/25 11:12:23;;;;;;;19.47;8.33;;;7.00;99.90;;;;;;5034512;28;20199;-49
2022/12/25 11:14:55;;;;;;;17.57;8.23;;;7.00;99.90;;;;;;5033880;28;20732;-52
2022/12/25 11:17:24;;;;;;;16.77;8.30;;;7.00;99.90;;;;;;5019180;28;20986;-47
2022/12/25 11:19:53;;;;;;;19.57;8.07;;;7.00;99.90;;;;;;5040046;28;20237;-50
2022/12/25 11:22:22;;;;;;;21.07;8.37;;;7.10;99.90;;;;;;5033849;28;20232;-53
2022/12/25 11:24:49;;;;;;;13.40;8.20;;;7.10;99.90;;;;;;5033613;28;20709;-48
2022/12/25 11:27:23;;;;;;;19.33;8.90;;;7.10;99.90;;;;;;5035056;28;20674;-51
2022/12/25 11:29:52;;;;;;;17.83;8.27;;;7.20;99.90;;;;;;5042850;28;20285;-48
2022/12/25 11:32:24;;;;;;;16.40;7.67;;;7.20;99.90;;;;;;5016132;28;20280;-49
2022/12/25 11:34:53;;;;;;;15.90;7.93;;;7.20;99.90;;;;;;5035085;28;20212;-51
2022/12/25 11:37:27;;;;;;;16.40;7.80;;;7.20;99.90;;;;;;5023158;28;20246;-52
2022/12/25 11:39:54;;;;;;;16.00;7.97;;;7.30;99.90;;;;;;5021682;28;20200;-47
2022/12/25 11:42:25;;;;;;;17.47;8.57;;;7.20;99.90;;;;;;5027167;28;20203;-50
2022/12/25 11:44:57;;;;;;;17.03;7.63;;;7.20;99.90;;;;;;5023684;28;20221;-51
2022/12/25 11:47:30;;;;;;;17.57;7.40;;;7.30;99.90;;;;;;5038313;28;20203;-49
2022/12/25 11:50:02;;;;;;;22.90;7.37;;;7.30;99.90;;;;;;5027850;28;20203;-48
2022/12/25 11:52:35;;;;;;;13.10;8.00;;;7.30;99.90;;;;;;5026346;28;20203;-50
2022/12/25 11:55:07;;;;;;;14.93;7.90;;;7.30;99.90;;;;;;5031610;28;20206;-48
2022/12/25 11:57:35;;;;;;;13.73;7.70;;;7.30;99.90;;;;;;5030576;28;20211;-48
2022/12/25 12:00:09;;;;;;;17.97;8.03;;;7.40;99.90;;;;;;5036236;28;20907;-48
2022/12/25 12:02:42;;;;;;;15.73;7.90;;;7.30;99.90;;;;;;5029901;28;20206;-47
2022/12/25 12:05:17;;;;;;;20.50;8.27;;;7.30;99.90;;;;;;5028539;28;20873;-45
2022/12/25 12:07:53;;;;;;;16.40;8.13;;;7.30;99.90;;;;;;5021412;28;20211;-53
2022/12/25 12:10:26;;;;;;;16.43;8.23;;;7.40;99.90;;;;;;5031223;28;20613;-49
2022/12/25 12:13:03;;;;;;;20.70;8.33;;;7.30;99.90;;;;;;5026031;28;20208;-53
2022/12/25 12:15:39;;;;;;;17.43;8.10;;;7.30;99.90;;;;;;5036056;28;20230;-51
2022/12/25 12:18:18;;;;;;;21.50;8.47;;;7.40;99.90;;;;;;5037280;28;20708;-50
2022/12/25 12:20:56;;;;;;;17.40;7.70;;;7.40;99.90;;;;;;5018040;28;20911;-49
2022/12/25 12:23:25;;;;;;;15.60;8.10;;;7.40;99.90;;;;;;5026026;28;20242;-51
2022/12/25 12:25:52;;;;;;;15.57;7.53;;;7.40;99.90;;;;;;5041703;28;20180;-51
2022/12/25 12:28:23;;;;;;;20.80;7.87;;;7.40;99.90;;;;;;5035593;28;20207;-53
2022/12/25 12:30:59;;;;;;;17.90;7.87;;;7.50;99.90;;;;;;5027680;28;20858;-50
2022/12/25 12:33:30;;;;;;;20.80;8.20;;;7.40;99.90;;;;;;5028249;28;20261;-51
2022/12/25 12:35:57;;;;;;;19.57;8.83;;;7.50;99.90;;;;;;5025603;28;20223;-52
2022/12/25 12:38:27;;;;;;;18.13;8.13;;;7.40;99.90;;;;;;5036131;28;20237;-53
2022/12/25 12:40:56;;;;;;;13.67;7.33;;;7.40;99.90;;;;;;5037021;28;20203;-49
2022/12/25 12:43:31;;;;;;;14.80;8.03;;;7.40;99.90;;;;;;5036916;28;20247;-49
2022/12/25 12:46:14;;;;;;;18.53;8.33;;;7.40;99.90;;;;;;5028178;28;20196;-51
2022/12/25 12:48:43;;;;;;;19.83;8.70;;;7.40;99.90;;;;;;5040185;28;20248;-52
2022/12/25 12:51:11;;;;;;;16.00;8.03;;;7.40;99.90;;;;;;5022458;28;20211;-49
2022/12/25 12:53:40;;;;;;;18.90;8.57;;;7.40;99.90;;;;;;5036527;28;20681;-47
2022/12/25 12:56:13;;;;;;;15.20;7.53;;;7.40;99.90;;;;;;5032523;28;20218;-49
2022/12/25 12:58:47;;;;;;;19.07;7.97;;;7.40;99.90;;;;;;5041817;28;20661;-47
2022/12/25 13:01:30;;;;;;;15.07;8.63;;;7.50;99.90;;;;;;5031663;28;20197;-50
2022/12/25 13:04:15;;;;;;;18.23;8.50;;;7.50;99.90;;;;;;5033783;28;20242;-53
2022/12/25 13:07:12;;;;;;;21.07;8.30;;;7.50;99.90;;;;;;5018079;28;20207;-53
2022/12/25 13:09:55;;;;;;;19.53;7.90;;;7.50;99.90;;;;;;5024033;28;20795;-49
2022/12/25 13:12:23;;;;;;;17.30;7.47;;;7.50;99.90;;;;;;5039892;28;20195;-46
2022/12/25 13:14:50;;;;;;;22.47;8.67;;;7.50;99.90;;;;;;5030646;28;20278;-50
2022/12/25 13:17:20;;;;;;;15.67;7.60;;;7.50;99.90;;;;;;5038999;28;20198;-46
2022/12/25 13:19:51;;;;;;;15.80;7.63;;;7.50;99.90;;;;;;5037127;28;20547;-47
2022/12/25 13:22:26;;;;;;;17.50;7.87;;;7.50;99.90;;;;;;5029320;28;20301;-47
2022/12/25 13:24:59;;;;;;;16.00;7.93;;;7.50;99.90;;;;;;5029860;28;20223;-49
2022/12/25 13:27:28;;;;;;;25.40;8.17;;;7.50;99.90;;;;;;5041046;28;20190;-46
2022/12/25 13:29:54;;;;;;;18.20;7.37;;;7.40;99.90;;;;;;5035047;28;20211;-50
2022/12/25 13:32:24;;;;;;;18.80;7.27;;;7.50;99.90;;;;;;5031203;28;20199;-47
2022/12/25 13:34:52;;;;;;;18.30;8.20;;;7.50;99.90;;;;;;5035079;28;20222;-51
2022/12/25 13:37:21;;;;;;;13.37;7.20;;;7.50;99.90;;;;;;5015027;28;20867;-50
2022/12/25 13:39:51;;;;;;;12.27;7.33;;;7.50;99.90;;;;;;5023435;28;20207;-50
2022/12/25 13:42:21;;;;;;;19.20;7.57;;;7.50;99.90;;;;;;5034476;28;20198;-52
2022/12/25 13:44:50;;;;;;;15.03;8.00;;;7.50;99.90;;;;;;5036242;28;20230;-49
2022/12/25 13:47:30;;;;;;;14.70;7.40;;;7.60;99.90;;;;;;5023503;28;20200;-50
2022/12/25 13:50:00;;;;;;;12.57;7.23;;;7.50;99.90;;;;;;5038135;28;20572;-49
2022/12/25 13:52:32;;;;;;;14.83;7.63;;;7.50;99.90;;;;;;5024113;28;20204;-47
2022/12/25 13:55:04;;;;;;;15.07;7.30;;;7.50;99.90;;;;;;5032163;28;20393;-49
2022/12/25 13:57:34;;;;;;;14.10;7.87;;;7.50;99.90;;;;;;5032900;28;20203;-48
2022/12/25 14:00:02;;;;;;;14.70;6.97;;;7.50;99.90;;;;;;5030019;28;20219;-49
2022/12/25 14:02:35;;;;;;;16.63;7.90;;;7.50;99.90;;;;;;5031562;28;20195;-47
2022/12/25 14:05:02;;;;;;;15.70;7.33;;;7.50;99.90;;;;;;5022591;28;20314;-48
2022/12/25 14:07:29;;;;;;;17.80;7.53;;;7.50;99.90;;;;;;5016382;28;20219;-52
2022/12/25 14:10:01;;;;;;;19.60;8.20;;;7.50;99.90;;;;;;5030211;28;20689;-50
2022/12/25 14:12:30;;;;;;;14.97;7.33;;;7.50;99.90;;;;;;5028968;28;20785;-48
2022/12/25 14:15:00;;;;;;;19.63;7.77;;;7.50;99.90;;;;;;5026775;28;20219;-50
2022/12/25 14:17:27;;;;;;;24.83;7.70;;;7.50;99.90;;;;;;5027165;28;20933;-47
2022/12/25 14:19:59;;;;;;;23.20;7.63;;;7.50;99.90;;;;;;5029668;28;20206;-53
2022/12/25 14:22:28;;;;;;;16.90;7.37;;;7.50;99.90;;;;;;5008871;28;20216;-50
2022/12/25 14:24:55;;;;;;;16.07;7.80;;;7.50;99.90;;;;;;5037328;28;20219;-49
2022/12/25 14:27:25;;;;;;;19.57;7.50;;;7.50;99.90;;;;;;5024391;28;20979;-47
2022/12/25 14:29:54;;;;;;;19.10;8.63;;;7.40;99.90;;;;;;5031020;28;20196;-50
2022/12/25 14:32:26;;;;;;;21.13;7.57;;;7.50;99.90;;;;;;5033080;28;20697;-53
2022/12/25 14:34:57;;;;;;;23.33;8.43;;;7.40;99.90;;;;;;5035647;28;20238;-50
2022/12/25 14:37:28;;;;;;;18.30;6.93;;;7.40;99.90;;;;;;5060933;28;20231;-52